Time;durP1;ratioP1;P1;durP2;ratioP2;P2;SDS_P1;SDS_P2;PMS_P1;PMS_P2;Temp;Humidity;BMP_temperature;BMP_pressure;BME280_temperature;BME280_humidity;BME280_pressure;Samples;Min_cycle;Max_cycle;Signal;HPM_P1;HPM_P2
2023/07/31 00:00:29;;;;;;;4.70;2.53;;;;;;;18.49;100.00;-18524.63;5106205;28;20043;-74
2023/07/31 00:02:55;;;;;;;5.50;2.85;;;;;;;18.65;100.00;-18528.97;5106527;28;20048;-76
2023/07/31 00:05:21;;;;;;;4.95;3.05;;;;;;;18.67;100.00;-18529.53;5104868;28;20044;-76
2023/07/31 00:07:46;;;;;;;6.80;3.47;;;;;;;18.68;100.00;-18529.81;5087418;28;20450;-77
2023/07/31 00:10:12;;;;;;;4.78;3.00;;;;;;;18.90;100.00;-18535.66;5103294;28;20047;-76
2023/07/31 00:12:43;;;;;;;5.80;3.30;;;;;;;18.82;100.00;-18533.34;5103183;28;20127;-75
2023/07/31 00:15:09;;;;;;;6.90;3.88;;;;;;;18.54;100.00;-18525.84;5104476;28;20039;-76
2023/07/31 00:17:35;;;;;;;5.70;3.28;;;;;;;18.58;100.00;-18526.94;5101024;28;20260;-77
2023/07/31 00:20:00;;;;;;;7.63;3.45;;;;;;;18.68;100.00;-18529.66;5102621;28;20120;-76
2023/07/31 00:22:26;;;;;;;6.20;2.85;;;;;;;18.63;100.00;-18528.31;5086294;28;20043;-76
2023/07/31 00:24:51;;;;;;;5.90;3.13;;;;;;;18.45;100.00;-18523.53;5102731;28;20044;-77
2023/07/31 00:27:16;;;;;;;4.57;2.60;;;;;;;18.50;100.00;-18524.91;5104127;28;20040;-75
2023/07/31 00:29:42;;;;;;;6.20;2.78;;;;;;;18.49;100.00;-18524.75;5105694;28;20071;-76
2023/07/31 00:32:07;;;;;;;4.60;2.83;;;;;;;18.41;100.00;-18522.56;5103491;28;20032;-78
2023/07/31 00:34:33;;;;;;;5.60;2.58;;;;;;;18.46;100.00;-18523.94;5102563;28;20046;-78
2023/07/31 00:36:58;;;;;;;4.70;2.85;;;;;;;18.41;100.00;-18522.44;5087202;28;20043;-75
2023/07/31 00:39:23;;;;;;;5.10;2.50;;;;;;;18.44;100.00;-18523.25;5103327;28;20079;-78
2023/07/31 00:41:49;;;;;;;5.30;2.78;;;;;;;18.53;100.00;-18525.72;5104791;28;20854;-78
2023/07/31 00:44:14;;;;;;;4.82;2.90;;;;;;;18.64;100.00;-18528.72;5104309;28;20043;-74
2023/07/31 00:46:40;;;;;;;4.65;2.75;;;;;;;18.60;100.00;-18527.63;5104715;28;20043;-78
2023/07/31 00:49:05;;;;;;;5.50;3.33;;;;;;;18.72;100.00;-18530.75;5105240;28;20055;-76
2023/07/31 00:51:31;;;;;;;7.97;2.90;;;;;;;18.61;100.00;-18527.88;5098713;28;20050;-76
2023/07/31 00:53:56;;;;;;;5.20;2.58;;;;;;;18.63;100.00;-18528.44;5105488;28;20495;-76
2023/07/31 00:56:22;;;;;;;4.53;2.65;;;;;;;18.76;100.00;-18531.72;5104074;28;20043;-78
2023/07/31 00:58:47;;;;;;;4.38;2.80;;;;;;;19.24;100.00;-18544.53;5102255;28;20039;-76
2023/07/31 01:01:16;;;;;;;4.60;3.28;;;;;;;19.20;100.00;-18543.44;5104523;28;20123;-76
2023/07/31 01:03:41;;;;;;;5.30;2.97;;;;;;;19.19;100.00;-18543.16;5101718;27;20402;-75
2023/07/31 01:06:39;;;;;;;4.82;3.00;;;;;;;19.17;100.00;-18542.88;5099821;28;20282;-76
2023/07/31 01:09:16;;;;;;;5.47;3.70;;;;;;;19.20;100.00;-18543.56;5069740;28;20051;-78
2023/07/31 01:11:53;;;;;;;4.15;2.63;;;;;;;19.21;100.00;-18543.72;5103682;28;20134;-76
2023/07/31 01:14:19;;;;;;;4.03;2.30;;;;;;;19.00;100.00;-18538.25;5103850;28;20046;-76
2023/07/31 01:16:44;;;;;;;4.05;2.60;;;;;;;19.06;100.00;-18539.91;5102450;28;20031;-78
2023/07/31 01:19:13;;;;;;;2.88;2.30;;;;;;;19.03;100.00;-18539.06;5103053;28;20041;-77
2023/07/31 01:21:53;;;;;;;3.85;2.17;;;;;;;19.21;100.00;-18543.84;5100543;28;20039;-77
2023/07/31 01:24:40;;;;;;;4.07;2.25;;;;;;;18.93;100.00;-18536.50;5084041;28;20047;-77
2023/07/31 01:27:21;;;;;;;3.53;2.55;;;;;;;18.97;100.00;-18537.31;5097721;28;20036;-76
2023/07/31 01:30:03;;;;;;;3.13;2.20;;;;;;;19.04;100.00;-18539.34;5104887;28;20123;-78
2023/07/31 01:32:29;;;;;;;3.53;1.83;;;;;;;18.96;100.00;-18537.16;5103827;28;20044;-78
2023/07/31 01:34:57;;;;;;;2.67;1.88;;;;;;;19.00;100.00;-18538.25;5102813;28;20062;-76
2023/07/31 01:37:28;;;;;;;3.93;2.03;;;;;;;19.07;100.00;-18540.16;5096987;28;20044;-78
2023/07/31 01:39:54;;;;;;;2.42;1.90;;;;;;;19.21;100.00;-18543.84;5101963;28;20047;-78
2023/07/31 01:42:19;;;;;;;4.93;2.28;;;;;;;19.31;100.00;-18546.44;5103630;28;20678;-77
2023/07/31 01:44:44;;;;;;;3.65;2.78;;;;;;;19.12;100.00;-18541.53;5100831;28;20098;-76
2023/07/31 01:47:10;;;;;;;6.40;3.78;;;;;;;19.15;100.00;-18542.34;5103717;28;20046;-77
2023/07/31 01:49:35;;;;;;;5.95;3.75;;;;;;;19.18;100.00;-18543.03;5102121;28;20112;-76
2023/07/31 01:52:00;;;;;;;9.38;5.22;;;;;;;19.24;100.00;-18544.66;5104110;28;20085;-76
2023/07/31 01:54:26;;;;;;;8.13;4.85;;;;;;;19.21;100.00;-18543.84;5103434;28;20067;-75
2023/07/31 01:56:51;;;;;;;14.18;6.97;;;;;;;19.28;100.00;-18545.63;5104948;28;20423;-76
2023/07/31 01:59:16;;;;;;;15.63;7.75;;;;;;;19.27;100.00;-18545.34;5107057;28;22097;-78
2023/07/31 02:01:42;;;;;;;20.52;9.13;;;;;;;19.37;100.00;-18548.19;5108433;28;20403;-77
2023/07/31 02:04:07;;;;;;;19.88;9.45;;;;;;;19.37;100.00;-18548.06;5109346;28;20313;-75
2023/07/31 02:06:32;;;;;;;27.63;11.38;;;;;;;19.52;100.00;-18552.16;5102230;28;20498;-77
2023/07/31 02:08:58;;;;;;;27.25;11.43;;;;;;;19.46;100.00;-18550.38;5090397;28;20119;-77
2023/07/31 02:11:23;;;;;;;29.25;12.88;;;;;;;19.49;100.00;-18551.34;5106025;28;20068;-77
2023/07/31 02:13:48;;;;;;;33.25;14.38;;;;;;;19.51;100.00;-18551.88;5103555;28;20064;-77
2023/07/31 02:16:14;;;;;;;27.15;12.98;;;;;;;19.53;100.00;-18552.44;5104147;28;20487;-79
2023/07/31 02:18:39;;;;;;;34.90;15.07;;;;;;;19.63;100.00;-18554.88;5089628;28;20124;-77
2023/07/31 02:21:04;;;;;;;34.03;14.95;;;;;;;19.75;100.00;-18558.16;5107204;28;20043;-78
2023/07/31 02:23:30;;;;;;;32.95;16.50;;;;;;;19.73;100.00;-18557.59;5105613;28;20061;-79
2023/07/31 02:25:55;;;;;;;32.63;15.75;;;;;;;19.81;100.00;-18559.91;5106957;28;20067;-76
2023/07/31 02:28:20;;;;;;;35.40;15.98;;;;;;;19.78;100.00;-18558.97;5088879;28;20112;-80
2023/07/31 02:30:46;;;;;;;29.00;14.77;;;;;;;19.66;100.00;-18555.84;5105613;28;20086;-77
2023/07/31 02:33:11;;;;;;;35.33;16.85;;;;;;;19.65;100.00;-18555.41;5087534;28;20047;-77
2023/07/31 02:35:37;;;;;;;33.53;15.77;;;;;;;19.83;100.00;-18560.34;5105441;28;20042;-76
2023/07/31 02:38:02;;;;;;;46.17;16.73;;;;;;;19.92;100.00;-18562.78;5106306;28;20089;-78
2023/07/31 02:40:28;;;;;;;34.97;17.45;;;;;;;19.97;100.00;-18564.16;5107233;28;21394;-78
2023/07/31 02:42:53;;;;;;;31.27;15.55;;;;;;;20.17;100.00;-18569.31;5107017;28;20039;-76
2023/07/31 02:45:18;;;;;;;33.05;15.88;;;;;;;20.10;100.00;-18567.41;5103802;28;20035;-76
2023/07/31 02:47:44;;;;;;;36.55;16.25;;;;;;;20.27;100.00;-18572.16;5105937;28;20745;-77
2023/07/31 02:50:09;;;;;;;32.40;15.10;;;;;;;19.88;100.00;-18561.69;5104992;28;20064;-78
2023/07/31 02:52:35;;;;;;;37.08;15.68;;;;;;;19.75;100.00;-18558.28;5107983;28;20705;-76
2023/07/31 02:55:00;;;;;;;30.55;14.75;;;;;;;19.73;100.00;-18557.75;5102126;28;20446;-74
2023/07/31 02:57:25;;;;;;;28.13;14.32;;;;;;;19.90;100.00;-18562.22;5099954;28;20514;-77
2023/07/31 02:59:51;;;;;;;32.28;14.30;;;;;;;19.82;100.00;-18560.06;5104019;28;20422;-78
2023/07/31 03:02:16;;;;;;;29.40;12.82;;;;;;;19.90;100.00;-18562.22;5103564;28;20043;-78
2023/07/31 03:04:41;;;;;;;27.65;13.52;;;;;;;20.06;100.00;-18566.47;5104085;28;20126;-77
2023/07/31 03:07:07;;;;;;;26.48;13.90;;;;;;;19.89;100.00;-18561.97;5107887;28;20063;-77
2023/07/31 03:09:32;;;;;;;26.13;13.38;;;;;;;20.01;100.00;-18565.22;5103340;28;20043;-78
2023/07/31 03:11:57;;;;;;;22.40;11.15;;;;;;;20.03;100.00;-18565.78;5105719;28;20119;-76
2023/07/31 03:14:23;;;;;;;25.52;13.43;;;;;;;20.22;100.00;-18570.81;5100464;28;20647;-77
2023/07/31 03:16:48;;;;;;;28.70;11.30;;;;;;;20.21;100.00;-18570.53;5088628;28;20036;-77
2023/07/31 03:19:14;;;;;;;23.75;11.05;;;;;;;20.31;100.00;-18573.13;5086664;28;20043;-75
2023/07/31 03:21:39;;;;;;;27.55;11.75;;;;;;;20.32;100.00;-18573.41;5088281;28;20051;-77
2023/07/31 03:24:05;;;;;;;24.67;10.93;;;;;;;20.23;100.00;-18570.94;5103486;28;20559;-78
2023/07/31 03:26:31;;;;;;;23.98;12.20;;;;;;;20.15;100.00;-18568.78;5099658;28;20047;-74
2023/07/31 03:28:57;;;;;;;23.25;12.45;;;;;;;19.93;100.00;-18563.06;5102458;28;20059;-78
2023/07/31 03:31:22;;;;;;;25.70;11.18;;;;;;;20.04;100.00;-18566.03;5102569;28;20044;-76
2023/07/31 03:33:47;;;;;;;26.38;12.43;;;;;;;20.21;100.00;-18570.53;5100766;28;20040;-77
2023/07/31 03:36:13;;;;;;;19.73;9.65;;;;;;;20.20;100.00;-18570.13;5103117;28;20485;-77
2023/07/31 03:38:38;;;;;;;23.67;10.70;;;;;;;20.22;100.00;-18570.69;5104538;28;20414;-77
2023/07/31 03:41:06;;;;;;;23.75;11.02;;;;;;;20.05;100.00;-18566.19;5105123;28;20039;-79
2023/07/31 03:43:32;;;;;;;22.35;9.27;;;;;;;19.95;100.00;-18563.47;5099406;28;20070;-78
2023/07/31 03:45:58;;;;;;;25.13;10.27;;;;;;;20.13;100.00;-18568.22;5102869;28;20043;-77
2023/07/31 03:48:23;;;;;;;23.08;10.57;;;;;;;19.97;100.00;-18564.16;5101174;28;20126;-78
2023/07/31 03:50:49;;;;;;;26.25;9.63;;;;;;;19.75;100.00;-18558.16;5105408;28;20051;-75
2023/07/31 03:53:14;;;;;;;22.70;9.43;;;;;;;20.07;100.00;-18566.72;5103487;28;20040;-77
2023/07/31 03:55:39;;;;;;;19.70;10.38;;;;;;;20.12;100.00;-18567.97;5102719;28;20127;-78
2023/07/31 03:58:05;;;;;;;23.05;9.95;;;;;;;19.87;100.00;-18561.28;5098076;28;20047;-76
2023/07/31 04:00:30;;;;;;;19.42;9.07;;;;;;;19.63;100.00;-18554.88;5086117;28;20525;-75
2023/07/31 04:02:56;;;;;;;17.88;9.00;;;;;;;19.92;100.00;-18562.78;5104556;28;20131;-78
2023/07/31 04:05:21;;;;;;;18.95;9.00;;;;;;;19.98;100.00;-18564.41;5101190;28;20120;-75
2023/07/31 04:07:46;;;;;;;20.52;9.18;;;;;;;20.04;100.00;-18565.91;5101811;28;20451;-78
2023/07/31 04:10:12;;;;;;;19.83;8.27;;;;;;;19.85;100.00;-18560.88;5102528;28;20303;-77
2023/07/31 04:12:37;;;;;;;17.83;8.55;;;;;;;19.82;100.00;-18560.06;5106579;28;20043;-77
2023/07/31 04:15:03;;;;;;;21.65;8.50;;;;;;;19.74;100.00;-18558.00;5099866;28;20043;-78
2023/07/31 04:17:28;;;;;;;19.50;6.88;;;;;;;19.66;100.00;-18555.69;5103295;28;20048;-76
2023/07/31 04:19:53;;;;;;;18.52;7.30;;;;;;;19.71;100.00;-18557.19;5103053;28;20066;-77
2023/07/31 04:22:19;;;;;;;19.35;8.45;;;;;;;19.79;100.00;-18559.25;5083889;28;20051;-79
2023/07/31 04:24:44;;;;;;;21.60;7.35;;;;;;;19.98;100.00;-18564.28;5103338;28;20046;-77
2023/07/31 04:27:10;;;;;;;22.65;7.38;;;;;;;19.96;100.00;-18563.72;5105378;28;20068;-79
2023/07/31 04:29:35;;;;;;;19.05;6.70;;;;;;;19.92;100.00;-18562.78;5104972;28;20055;-79
2023/07/31 04:32:01;;;;;;;17.98;7.45;;;;;;;20.11;100.00;-18567.81;5104263;28;20040;-76
2023/07/31 04:34:26;;;;;;;18.00;6.97;;;;;;;20.12;100.00;-18567.97;5100277;27;20043;-76
2023/07/31 04:36:51;;;;;;;19.13;6.75;;;;;;;20.02;100.00;-18565.50;5103037;28;20549;-77
2023/07/31 04:39:17;;;;;;;16.05;6.68;;;;;;;20.08;100.00;-18566.88;5104200;28;20043;-76
2023/07/31 04:41:42;;;;;;;24.77;6.97;;;;;;;20.17;100.00;-18569.44;5103868;28;20479;-77
2023/07/31 04:44:07;;;;;;;19.10;6.60;;;;;;;20.10;100.00;-18567.53;5077177;28;20131;-76
2023/07/31 04:46:33;;;;;;;19.15;6.97;;;;;;;20.09;100.00;-18567.28;5104497;28;20076;-76
2023/07/31 04:48:58;;;;;;;17.35;6.18;;;;;;;20.15;100.00;-18568.78;5092518;28;20050;-77
2023/07/31 04:51:23;;;;;;;13.73;5.68;;;;;;;19.93;100.00;-18563.06;5104581;28;20059;-77
2023/07/31 04:53:49;;;;;;;12.38;5.53;;;;;;;19.99;100.00;-18564.69;5105123;28;20039;-77
2023/07/31 04:56:15;;;;;;;15.15;6.07;;;;;;;20.00;100.00;-18564.97;5101935;28;20039;-76
2023/07/31 04:58:40;;;;;;;16.80;6.68;;;;;;;20.08;100.00;-18567.00;5102303;28;20035;-76
2023/07/31 05:01:06;;;;;;;21.08;6.18;;;;;;;19.93;100.00;-18563.06;5107424;28;20050;-75
2023/07/31 05:03:31;;;;;;;15.35;5.75;;;;;;;20.05;100.00;-18566.19;5110481;28;20573;-76
2023/07/31 05:05:57;;;;;;;19.73;7.07;;;;;;;20.11;100.00;-18567.81;5107906;28;20036;-76
2023/07/31 05:08:22;;;;;;;15.57;5.47;;;;;;;20.06;100.00;-18566.59;5090112;28;20058;-76
2023/07/31 05:10:48;;;;;;;13.88;6.15;;;;;;;20.11;100.00;-18567.69;5105210;28;20048;-76
2023/07/31 05:13:14;;;;;;;19.92;6.63;;;;;;;20.01;100.00;-18565.22;5089568;28;20650;-76
2023/07/31 05:15:40;;;;;;;15.43;5.80;;;;;;;20.12;100.00;-18567.97;5104368;28;20049;-77
2023/07/31 05:18:06;;;;;;;19.35;5.55;;;;;;;20.05;100.00;-18566.19;5106521;28;20057;-77
2023/07/31 05:20:31;;;;;;;17.42;6.60;;;;;;;20.01;100.00;-18565.09;5103306;28;20095;-76
2023/07/31 05:22:57;;;;;;;14.32;5.78;;;;;;;19.97;100.00;-18564.16;5103578;28;20475;-77
2023/07/31 05:25:22;;;;;;;18.00;6.47;;;;;;;20.13;100.00;-18568.34;5104274;28;20047;-77
2023/07/31 05:27:47;;;;;;;19.65;6.13;;;;;;;20.09;100.00;-18567.13;5105596;28;20047;-80
2023/07/31 05:30:13;;;;;;;12.63;5.78;;;;;;;20.08;100.00;-18566.88;5105268;28;20126;-77
2023/07/31 05:32:38;;;;;;;18.40;6.63;;;;;;;20.16;100.00;-18569.03;5103579;28;20051;-76
2023/07/31 05:35:04;;;;;;;13.90;6.57;;;;;;;20.09;100.00;-18567.13;5100279;28;20039;-77
2023/07/31 05:37:29;;;;;;;14.95;5.53;;;;;;;20.08;100.00;-18566.88;5103046;28;20063;-76
2023/07/31 05:39:55;;;;;;;14.68;6.45;;;;;;;19.91;100.00;-18562.38;5104610;28;20142;-77
2023/07/31 05:42:20;;;;;;;20.05;8.10;;;;;;;19.91;100.00;-18562.38;5105451;28;20067;-76
2023/07/31 05:44:46;;;;;;;14.60;6.63;;;;;;;19.78;100.00;-18558.97;5093111;28;20043;-76
2023/07/31 05:47:12;;;;;;;16.23;6.53;;;;;;;19.87;100.00;-18561.41;5099269;28;20039;-76
2023/07/31 05:49:37;;;;;;;17.08;7.85;;;;;;;19.83;100.00;-18560.34;5100658;28;20604;-77
2023/07/31 05:52:03;;;;;;;13.38;6.65;;;;;;;19.87;100.00;-18561.28;5101193;28;20052;-77
2023/07/31 05:54:28;;;;;;;13.55;6.78;;;;;;;19.87;100.00;-18561.28;5080478;28;20054;-77
2023/07/31 05:56:54;;;;;;;16.02;6.60;;;;;;;19.91;100.00;-18562.50;5101684;28;20124;-77
2023/07/31 05:59:19;;;;;;;17.85;6.60;;;;;;;19.95;100.00;-18563.59;5099373;28;20047;-76
2023/07/31 06:01:44;;;;;;;15.45;5.68;;;;;;;19.99;100.00;-18564.69;5102536;28;20108;-77
2023/07/31 06:04:10;;;;;;;13.60;6.53;;;;;;;20.11;100.00;-18567.81;5100273;28;20156;-77
2023/07/31 06:06:35;;;;;;;14.40;5.65;;;;;;;19.90;100.00;-18562.22;5098685;28;20620;-77
2023/07/31 06:09:01;;;;;;;16.38;6.60;;;;;;;20.02;100.00;-18565.50;5102583;28;20056;-76
2023/07/31 06:11:26;;;;;;;12.80;5.93;;;;;;;20.04;100.00;-18566.03;5100701;28;20054;-77
2023/07/31 06:13:51;;;;;;;18.20;5.68;;;;;;;20.18;100.00;-18569.59;5103570;28;20031;-76
2023/07/31 06:16:17;;;;;;;14.27;6.20;;;;;;;20.06;100.00;-18566.47;5104800;28;20046;-78
2023/07/31 06:18:42;;;;;;;17.63;6.68;;;;;;;20.18;100.00;-18569.59;5107973;28;20035;-77
2023/07/31 06:21:09;;;;;;;13.40;5.85;;;;;;;20.26;100.00;-18571.91;5110624;28;20545;-77
2023/07/31 06:23:34;;;;;;;13.40;6.38;;;;;;;20.31;100.00;-18573.13;5088856;28;20058;-78
2023/07/31 06:25:59;;;;;;;15.88;6.05;;;;;;;20.22;100.00;-18570.69;5107967;28;20051;-78
2023/07/31 06:28:31;;;;;;;13.85;5.57;;;;;;;20.29;100.00;-18572.59;5091933;28;20031;-78
2023/07/31 06:31:00;;;;;;;15.20;6.28;;;;;;;20.40;100.00;-18575.56;5103697;28;20080;-77
2023/07/31 06:33:26;;;;;;;;;;;;;;;20.41;100.00;-18575.84;5095611;28;20096;-78
2023/07/31 06:35:51;;;;;;;16.45;6.75;;;;;;;20.25;100.00;-18571.63;5086471;28;20003;-79
2023/07/31 06:38:23;;;;;;;14.57;5.72;;;;;;;20.32;100.00;-18573.25;5107401;28;20047;-78
2023/07/31 06:40:49;;;;;;;10.05;5.82;;;;;;;20.14;100.00;-18568.63;5106394;28;20039;-77
2023/07/31 06:43:14;;;;;;;12.23;5.60;;;;;;;20.25;100.00;-18571.50;5108797;28;20092;-78
2023/07/31 06:45:39;;;;;;;14.88;6.85;;;;;;;20.25;100.00;-18571.50;5106176;28;20050;-77
2023/07/31 06:48:05;;;;;;;17.58;5.68;;;;;;;20.15;100.00;-18568.78;5088420;28;20044;-76
2023/07/31 06:50:31;;;;;;;14.50;7.28;;;;;;;20.23;100.00;-18571.09;5107618;28;20039;-76
2023/07/31 06:52:57;;;;;;;15.45;6.88;;;;;;;20.03;100.00;-18565.63;5088308;28;20042;-78
2023/07/31 06:55:23;;;;;;;13.15;7.32;;;;;;;20.11;100.00;-18567.81;5107185;28;20036;-79
2023/07/31 06:57:50;;;;;;;12.20;7.07;;;;;;;20.01;100.00;-18565.22;5107189;28;20071;-78
2023/07/31 07:00:17;;;;;;;17.17;8.68;;;;;;;19.98;100.00;-18564.28;5106144;28;20146;-78
2023/07/31 07:02:43;;;;;;;16.38;7.70;;;;;;;19.94;100.00;-18563.31;5108569;28;20047;-77
2023/07/31 07:05:09;;;;;;;14.55;7.05;;;;;;;19.91;100.00;-18562.50;5108513;28;20415;-76
2023/07/31 07:07:35;;;;;;;12.95;6.80;;;;;;;19.93;100.00;-18563.06;5106209;28;20625;-76
2023/07/31 07:10:00;;;;;;;14.05;7.13;;;;;;;20.01;100.00;-18565.22;5106656;28;20028;-77
2023/07/31 07:12:27;;;;;;;14.80;6.80;;;;;;;20.03;100.00;-18565.78;5105555;28;20054;-77
2023/07/31 07:14:52;;;;;;;12.88;8.15;;;;;;;20.09;100.00;-18567.28;5088935;28;20043;-77
2023/07/31 07:17:18;;;;;;;14.18;8.30;;;;;;;20.15;100.00;-18568.78;5103573;28;20052;-77
2023/07/31 07:19:45;;;;;;;11.52;7.18;;;;;;;20.22;100.00;-18570.69;5104275;28;20082;-76
2023/07/31 07:22:11;;;;;;;10.50;6.68;;;;;;;20.26;100.00;-18571.91;5103559;28;20039;-77
2023/07/31 07:24:36;;;;;;;9.60;5.72;;;;;;;20.33;100.00;-18573.66;5103627;28;20036;-76
2023/07/31 07:27:02;;;;;;;6.97;5.60;;;;;;;20.36;100.00;-18574.47;5107059;28;20047;-78
2023/07/31 07:29:27;;;;;;;9.23;5.75;;;;;;;20.33;100.00;-18573.66;5088182;28;20077;-77
2023/07/31 07:31:52;;;;;;;7.38;5.18;;;;;;;20.43;100.00;-18576.41;5107079;28;20039;-76
2023/07/31 07:34:18;;;;;;;7.75;5.68;;;;;;;20.47;100.00;-18577.34;5087942;28;20050;-77
2023/07/31 07:36:43;;;;;;;9.88;6.43;;;;;;;20.47;100.00;-18577.34;5106128;28;20063;-76
2023/07/31 07:39:11;;;;;;;10.43;6.57;;;;;;;20.44;100.00;-18576.66;5105813;28;20083;-77
2023/07/31 07:41:36;;;;;;;7.97;6.18;;;;;;;20.45;100.00;-18576.78;5104225;28;20415;-78
2023/07/31 07:44:01;;;;;;;8.63;6.10;;;;;;;20.47;100.00;-18577.34;5106283;28;20040;-78
2023/07/31 07:46:27;;;;;;;8.85;5.90;;;;;;;20.57;100.00;-18579.94;5103862;28;20543;-77
2023/07/31 07:48:52;;;;;;;8.52;5.60;;;;;;;20.41;100.00;-18575.72;5104003;28;20110;-78
2023/07/31 07:51:17;;;;;;;10.25;6.22;;;;;;;20.58;100.00;-18580.22;5104610;28;20068;-78
2023/07/31 07:53:43;;;;;;;11.48;6.82;;;;;;;20.53;100.00;-18578.97;5102794;28;20127;-77
2023/07/31 07:56:08;;;;;;;8.73;6.15;;;;;;;20.57;100.00;-18580.06;5103252;27;20046;-78
2023/07/31 07:58:33;;;;;;;9.48;5.72;;;;;;;20.48;100.00;-18577.75;5103290;27;20051;-77
2023/07/31 08:00:59;;;;;;;8.50;6.15;;;;;;;20.75;100.00;-18584.84;5103591;27;20923;-78
2023/07/31 08:03:24;;;;;;;7.25;5.18;;;;;;;20.61;100.00;-18581.03;5084222;27;20146;-77
2023/07/31 08:05:49;;;;;;;7.95;5.05;;;;;;;20.68;100.00;-18582.94;5100485;27;20051;-76
2023/07/31 08:08:16;;;;;;;8.63;5.20;;;;;;;20.71;100.00;-18583.88;5101562;27;20039;-77
2023/07/31 08:10:43;;;;;;;5.40;4.90;;;;;;;20.64;100.00;-18581.84;5099905;27;20051;-77
2023/07/31 08:13:11;;;;;;;6.75;4.95;;;;;;;20.63;100.00;-18581.69;5102928;27;20077;-77
2023/07/31 08:15:36;;;;;;;6.30;5.47;;;;;;;20.59;100.00;-18580.47;5101358;28;20116;-78
2023/07/31 08:18:02;;;;;;;5.93;5.32;;;;;;;20.78;100.00;-18585.50;5103897;27;20063;-77
2023/07/31 08:20:27;;;;;;;7.60;5.65;;;;;;;20.82;100.00;-18586.72;5101868;27;20426;-77
2023/07/31 08:22:52;;;;;;;6.85;5.45;;;;;;;20.81;100.00;-18586.47;5101798;27;20918;-78
2023/07/31 08:25:18;;;;;;;6.85;5.88;;;;;;;20.99;100.00;-18591.09;5104289;27;20097;-77
2023/07/31 08:27:44;;;;;;;7.20;4.50;;;;;;;20.97;100.00;-18590.69;5103149;27;20152;-77
2023/07/31 08:30:11;;;;;;;9.55;5.50;;;;;;;21.13;100.00;-18595.03;5103837;28;20051;-76
2023/07/31 08:32:36;;;;;;;7.35;5.07;;;;;;;21.04;100.00;-18592.59;5102370;27;20106;-76
2023/07/31 08:35:02;;;;;;;6.05;4.93;;;;;;;21.05;100.00;-18592.72;5083997;27;20047;-78
2023/07/31 08:37:27;;;;;;;6.97;4.80;;;;;;;20.90;100.00;-18588.78;5100183;27;20483;-77
2023/07/31 08:39:54;;;;;;;6.88;5.07;;;;;;;20.90;100.00;-18588.78;5101470;27;20035;-77
2023/07/31 08:42:20;;;;;;;5.57;4.50;;;;;;;20.80;100.00;-18586.06;5100887;28;20134;-76
2023/07/31 08:44:46;;;;;;;6.75;4.65;;;;;;;20.87;100.00;-18588.09;5100205;27;20054;-77
2023/07/31 08:47:12;;;;;;;4.55;4.10;;;;;;;20.96;100.00;-18590.41;5099407;27;20058;-76
2023/07/31 08:49:40;;;;;;;7.15;4.88;;;;;;;20.91;100.00;-18589.19;5099635;28;20054;-77
2023/07/31 08:52:06;;;;;;;5.03;4.30;;;;;;;20.87;100.00;-18587.97;5097357;27;21299;-77
2023/07/31 08:54:33;;;;;;;6.60;4.80;;;;;;;20.93;100.00;-18589.59;5095362;27;20410;-77
2023/07/31 08:56:59;;;;;;;5.85;4.75;;;;;;;21.00;100.00;-18591.34;5103977;28;20044;-77
2023/07/31 08:59:29;;;;;;;5.45;4.40;;;;;;;20.76;100.00;-18585.09;5096886;27;20134;-78
2023/07/31 09:01:55;;;;;;;;;;;;;;;20.90;100.00;-18588.78;5100749;28;20078;-77
2023/07/31 09:04:22;;;;;;;5.65;4.60;;;;;;;20.73;100.00;-18584.41;5100172;28;19924;-77
2023/07/31 09:06:48;;;;;;;5.40;4.22;;;;;;;20.83;100.00;-18587.00;5099031;27;20051;-77
2023/07/31 09:09:15;;;;;;;8.23;5.00;;;;;;;20.95;100.00;-18590.28;5098626;28;20047;-76
2023/07/31 09:11:40;;;;;;;6.50;4.38;;;;;;;20.93;100.00;-18589.59;5095277;28;20423;-78
2023/07/31 09:14:08;;;;;;;5.80;4.30;;;;;;;20.88;100.00;-18588.38;5100727;28;20058;-77
2023/07/31 09:16:34;;;;;;;5.95;5.35;;;;;;;21.06;100.00;-18593.13;5079452;28;20392;-77
2023/07/31 09:19:01;;;;;;;5.55;4.30;;;;;;;21.14;100.00;-18595.16;5077172;28;20043;-79
2023/07/31 09:21:27;;;;;;;5.53;3.95;;;;;;;21.07;100.00;-18593.25;5095516;28;20045;-77
2023/07/31 09:23:54;;;;;;;5.82;5.00;;;;;;;20.86;100.00;-18587.81;5097479;28;20035;-78
2023/07/31 09:26:36;;;;;;;7.53;4.55;;;;;;;21.15;100.00;-18595.44;5096817;28;20039;-78
2023/07/31 09:29:05;;;;;;;3.97;3.58;;;;;;;20.89;100.00;-18588.63;5069826;28;20044;-79
2023/07/31 09:31:41;;;;;;;5.10;4.50;;;;;;;21.10;100.00;-18594.22;5097677;28;20042;-78
2023/07/31 09:34:06;;;;;;;5.65;4.70;;;;;;;21.11;100.00;-18594.34;5097390;28;20047;-79
2023/07/31 09:36:32;;;;;;;4.45;3.97;;;;;;;21.12;100.00;-18594.75;5093456;28;20044;-78
2023/07/31 09:39:04;;;;;;;4.25;3.85;;;;;;;21.00;100.00;-18591.34;5096461;28;20054;-79
2023/07/31 09:41:30;;;;;;;4.47;3.67;;;;;;;21.04;100.00;-18592.44;5076012;28;20183;-79
2023/07/31 09:43:56;;;;;;;4.72;4.10;;;;;;;21.05;100.00;-18592.72;5099023;28;20084;-78
2023/07/31 09:46:21;;;;;;;5.18;4.30;;;;;;;20.89;100.00;-18588.50;5095308;28;20502;-79
2023/07/31 09:48:47;;;;;;;4.63;3.58;;;;;;;20.93;100.00;-18589.72;5095202;28;20176;-78
2023/07/31 09:51:12;;;;;;;4.80;3.95;;;;;;;21.02;100.00;-18592.03;5096768;28;20506;-77
2023/07/31 09:53:38;;;;;;;5.00;4.50;;;;;;;21.15;100.00;-18595.56;5097184;28;20092;-78
2023/07/31 09:56:04;;;;;;;4.25;3.70;;;;;;;21.23;100.00;-18597.47;5095554;28;20054;-78
2023/07/31 09:58:33;;;;;;;4.53;4.03;;;;;;;21.28;100.00;-18598.97;5096917;28;20040;-79
2023/07/31 10:01:00;;;;;;;5.05;4.25;;;;;;;21.17;100.00;-18595.97;5097496;28;20046;-79
2023/07/31 10:03:26;;;;;;;5.07;4.20;;;;;;;21.28;100.00;-18598.84;5094739;28;20035;-78
2023/07/31 10:05:55;;;;;;;5.30;4.47;;;;;;;21.25;100.00;-18598.16;5097365;28;20503;-79
2023/07/31 10:08:23;;;;;;;;;;;;;;;21.03;100.00;-18592.19;5079046;28;20058;-77
2023/07/31 10:10:49;;;;;;;6.77;4.47;;;;;;;21.05;100.00;-18592.84;5093843;28;19928;-78
2023/07/31 10:13:15;;;;;;;5.32;4.57;;;;;;;20.86;100.00;-18587.69;5094828;28;20645;-78
2023/07/31 10:15:42;;;;;;;6.13;4.78;;;;;;;20.88;100.00;-18588.38;5094949;28;20053;-77
2023/07/31 10:18:08;;;;;;;7.03;4.72;;;;;;;20.90;100.00;-18588.91;5094057;28;20110;-79
2023/07/31 10:20:34;;;;;;;7.47;5.28;;;;;;;21.00;100.00;-18591.50;5102535;28;20148;-77
2023/07/31 10:23:00;;;;;;;5.68;4.53;;;;;;;20.96;100.00;-18590.53;5103365;28;20130;-78
2023/07/31 10:25:26;;;;;;;5.45;4.45;;;;;;;21.07;100.00;-18593.41;5103420;28;20054;-77
2023/07/31 10:27:54;;;;;;;7.35;4.60;;;;;;;20.91;100.00;-18589.19;5104697;28;20036;-79
2023/07/31 10:30:24;;;;;;;6.20;4.78;;;;;;;21.09;100.00;-18593.94;5104892;28;20425;-78
2023/07/31 10:32:51;;;;;;;5.95;4.95;;;;;;;21.06;100.00;-18593.00;5102893;28;20039;-77
2023/07/31 10:35:17;;;;;;;6.80;5.15;;;;;;;21.02;100.00;-18591.91;5103743;28;20117;-77
2023/07/31 10:37:43;;;;;;;5.70;4.68;;;;;;;20.92;100.00;-18589.47;5103393;28;20035;-79
2023/07/31 10:40:16;;;;;;;6.68;5.70;;;;;;;20.96;100.00;-18590.53;5104127;28;20475;-78
2023/07/31 10:42:49;;;;;;;6.25;4.72;;;;;;;20.97;100.00;-18590.69;5104301;28;20047;-77
2023/07/31 10:45:26;;;;;;;6.57;5.57;;;;;;;21.10;100.00;-18594.09;5100706;28;20040;-79
2023/07/31 10:47:59;;;;;;;6.97;5.22;;;;;;;21.00;100.00;-18591.34;5101097;28;20079;-78
2023/07/31 10:50:25;;;;;;;6.07;5.40;;;;;;;20.96;100.00;-18590.53;5103054;28;20035;-79
2023/07/31 10:52:55;;;;;;;7.78;5.50;;;;;;;20.89;100.00;-18588.50;5088595;28;20039;-78
2023/07/31 10:55:39;;;;;;;7.60;5.13;;;;;;;20.73;100.00;-18584.41;5087682;28;20055;-77
2023/07/31 10:58:12;;;;;;;6.38;5.30;;;;;;;20.64;100.00;-18581.97;5080503;28;20342;-77
2023/07/31 11:00:43;;;;;;;10.05;6.28;;;;;;;20.70;100.00;-18583.47;5084774;28;20395;-77
2023/07/31 11:03:18;;;;;;;8.15;6.57;;;;;;;20.46;100.00;-18577.22;5103673;28;20028;-77
2023/07/31 11:05:43;;;;;;;8.95;6.55;;;;;;;20.36;100.00;-18574.34;5102173;28;20047;-78
2023/07/31 11:08:13;;;;;;;9.50;6.70;;;;;;;20.32;100.00;-18573.41;5104524;28;20051;-77